createdAt,value
2022-10-20T05:45:22.100Z,13.60
2022-10-20T06:10:48.898Z,13.80
2022-10-20T06:15:47.855Z,13.70
2022-10-20T06:31:13.004Z,13.80
2022-10-20T06:56:48.783Z,13.80
2022-10-20T07:58:33.319Z,14.00
2022-10-20T08:55:24.071Z,14.50
2022-10-20T09:00:21.684Z,14.50
2022-10-20T09:05:19.245Z,14.60
2022-10-20T09:15:18.424Z,14.50
2022-10-20T09:25:27.381Z,14.40
2022-10-20T09:30:25.650Z,14.40
2022-10-20T09:35:29.647Z,14.40
2022-10-20T09:50:52.672Z,14.90
2022-10-20T09:55:49.938Z,15.00
2022-10-20T10:00:47.975Z,15.00
2022-10-20T10:05:41.411Z,15.00
2022-10-20T10:26:44.897Z,15.10
2022-10-20T10:31:52.895Z,15.30
2022-10-20T10:47:33.352Z,15.90
2022-10-20T10:52:48.024Z,15.90
2022-10-20T10:57:52.575Z,15.80
2022-10-20T11:03:16.811Z,15.70
2022-10-20T11:18:51.089Z,15.40
2022-10-20T11:28:49.289Z,15.20
2022-10-20T11:33:52.460Z,15.20
2022-10-20T11:44:03.467Z,15.40
2022-10-20T11:49:01.649Z,15.40
2022-10-20T12:14:43.673Z,15.40
2022-10-20T12:19:37.582Z,15.50
2022-10-20T12:24:35.301Z,15.50
2022-10-20T13:05:49.425Z,15.40
2022-10-20T13:15:56.074Z,15.40
2022-10-20T13:20:57.568Z,15.50
2022-10-20T13:25:53.879Z,15.50
2022-10-20T13:31:16.127Z,15.50
2022-10-20T13:36:19.734Z,15.50
2022-10-20T13:41:23.606Z,15.40
2022-10-20T13:46:43.891Z,15.50
2022-10-20T13:51:45.827Z,15.50
2022-10-20T13:56:48.079Z,15.30
2022-10-20T14:01:47.429Z,15.30
2022-10-20T14:06:42.049Z,15.20
2022-10-20T14:11:35.782Z,15.20
2022-10-20T14:16:31.813Z,15.10
2022-10-20T15:09:17.763Z,14.80
2022-10-20T16:04:06.329Z,14.70
2022-10-20T18:04:40.083Z,13.90
2022-10-20T18:09:33.648Z,14.00
2022-10-20T19:21:44.342Z,14.10
2022-10-20T19:31:42.071Z,14.10
2022-10-20T19:41:48.061Z,14.10
2022-10-20T19:57:03.627Z,14.20
2022-10-20T20:01:56.841Z,14.20
2022-10-20T20:06:50.282Z,14.20
2022-10-20T20:11:44.594Z,14.20
2022-10-20T20:16:39.730Z,14.20
2022-10-20T20:21:33.431Z,14.20
2022-10-20T20:26:28.009Z,14.00
2022-10-20T20:31:21.952Z,14.10
2022-10-20T20:36:17.080Z,14.20
2022-10-20T20:41:15.202Z,14.20
2022-10-20T20:46:13.315Z,14.10
2022-10-20T20:51:07.729Z,14.00
2022-10-20T20:56:06.215Z,13.80
2022-10-20T21:01:03.966Z,13.80
2022-10-20T21:05:57.440Z,13.80
2022-10-20T21:10:50.915Z,13.70
2022-10-20T21:15:45.981Z,13.80
2022-10-20T21:20:39.241Z,13.80
2022-10-20T21:25:32.457Z,14.00
2022-10-20T21:30:26.941Z,14.00
2022-10-20T21:35:21.636Z,14.00
2022-10-20T21:40:15.027Z,13.90
2022-10-20T21:45:09.037Z,14.00
2022-10-20T21:50:02.285Z,14.00
2022-10-20T21:54:57.203Z,13.90
2022-10-20T21:59:50.532Z,13.90
2022-10-20T22:04:43.911Z,13.80
2022-10-20T22:09:37.107Z,13.80
2022-10-20T22:14:31.897Z,13.90
2022-10-20T22:19:26.246Z,13.90
2022-10-20T22:24:20.638Z,13.90
2022-10-20T22:29:14.100Z,13.70
2022-10-20T22:34:08.931Z,13.80
2022-10-20T22:39:02.303Z,13.80
2022-10-20T22:43:55.632Z,13.80
2022-10-20T22:48:48.947Z,13.80
2022-10-20T22:53:44.509Z,13.90
2022-10-20T22:58:38.323Z,13.90
2022-10-20T23:03:31.546Z,13.90
2022-10-20T23:08:25.440Z,13.80
2022-10-20T23:13:21.277Z,13.90
2022-10-20T23:18:14.509Z,13.70
2022-10-20T23:23:07.814Z,13.70
2022-10-20T23:28:01.056Z,13.70
2022-10-20T23:32:55.632Z,13.70
2022-10-20T23:37:48.940Z,13.70
2022-10-20T23:42:42.248Z,13.70
2022-10-20T23:47:35.898Z,13.70
2022-10-20T23:52:30.859Z,13.70
2022-10-20T23:57:24.148Z,13.60
